Time;durP1;ratioP1;P1;durP2;ratioP2;P2;SDS_P1;SDS_P2;PMS_P1;PMS_P2;Temp;Humidity;BMP_temperature;BMP_pressure;BME280_temperature;BME280_humidity;BME280_pressure;Samples;Min_cycle;Max_cycle;Signal;HPM_P1;HPM_P2
2022/05/31 00:01:29;;;;;;;1.47;1.37;;;;;;;;;;4991587;28;20433;-72
2022/05/31 00:03:55;;;;;;;1.00;1.00;;;;;;;;;;4990899;28;20441;-72
2022/05/31 00:06:21;;;;;;;1.53;1.53;;;;;;;;;;4991885;28;20444;-72
2022/05/31 00:08:48;;;;;;;2.77;1.10;;;;;;;;;;4991394;28;21044;-72
2022/05/31 00:11:14;;;;;;;1.10;1.07;;;;;;;;;;4990246;28;20436;-71
2022/05/31 00:13:40;;;;;;;8.63;0.90;;;;;;;;;;4992357;28;20520;-72
2022/05/31 00:16:06;;;;;;;1.40;1.30;;;;;;;;;;4992953;28;20462;-72
2022/05/31 00:18:32;;;;;;;0.90;0.90;;;;;;;;;;4992760;28;20961;-72
2022/05/31 00:20:58;;;;;;;1.07;1.07;;;;;;;;;;4992913;28;20948;-72
2022/05/31 00:23:24;;;;;;;3.90;1.47;;;;;;;;;;4992737;28;20436;-72
2022/05/31 00:25:50;;;;;;;1.00;1.00;;;;;;;;;;4992608;28;20429;-72
2022/05/31 00:28:16;;;;;;;3.30;1.00;;;;;;;;;;4992939;28;20495;-72
2022/05/31 00:30:42;;;;;;;1.00;1.00;;;;;;;;;;4993301;28;20421;-71
2022/05/31 00:33:10;;;;;;;1.57;1.40;;;;;;;;;;4992304;28;20437;-72
2022/05/31 00:35:39;;;;;;;1.10;1.00;;;;;;;;;;4992246;28;20524;-73
2022/05/31 00:38:06;;;;;;;1.23;1.23;;;;;;;;;;4993028;28;20551;-72
2022/05/31 00:40:32;;;;;;;1.30;1.20;;;;;;;;;;4991019;28;20455;-72
2022/05/31 00:43:02;;;;;;;2.67;1.00;;;;;;;;;;4991759;28;20429;-72
2022/05/31 00:45:40;;;;;;;0.87;0.87;;;;;;;;;;4992464;28;20440;-71
2022/05/31 00:48:08;;;;;;;1.50;1.00;;;;;;;;;;4991459;28;20523;-72
2022/05/31 00:50:40;;;;;;;1.30;1.30;;;;;;;;;;4992731;28;20455;-72
2022/05/31 00:53:10;;;;;;;1.10;1.10;;;;;;;;;;4990815;28;20477;-72
2022/05/31 00:55:38;;;;;;;1.17;1.17;;;;;;;;;;4990937;28;20439;-71
2022/05/31 00:58:07;;;;;;;2.40;1.07;;;;;;;;;;4992334;28;20468;-72
2022/05/31 01:00:33;;;;;;;4.43;1.00;;;;;;;;;;4990985;28;20425;-72
2022/05/31 01:03:00;;;;;;;4.63;1.27;;;;;;;;;;4990506;28;20452;-72
2022/05/31 01:05:26;;;;;;;2.57;1.47;;;;;;;;;;4992176;28;20552;-72
2022/05/31 01:07:53;;;;;;;1.13;1.13;;;;;;;;;;4991653;28;20825;-72
2022/05/31 01:10:19;;;;;;;0.97;0.97;;;;;;;;;;4992502;28;20445;-72
2022/05/31 01:12:45;;;;;;;1.40;1.30;;;;;;;;;;4992022;28;20531;-72
2022/05/31 01:15:12;;;;;;;1.20;1.20;;;;;;;;;;4991459;28;20455;-71
2022/05/31 01:17:40;;;;;;;1.10;1.10;;;;;;;;;;4990145;28;20468;-72
2022/05/31 01:20:06;;;;;;;1.20;1.20;;;;;;;;;;4991878;28;20937;-72
2022/05/31 01:22:40;;;;;;;1.80;1.60;;;;;;;;;;4991613;28;20465;-71
2022/05/31 01:25:06;;;;;;;1.20;1.13;;;;;;;;;;4990741;28;20439;-72
2022/05/31 01:27:48;;;;;;;1.80;1.23;;;;;;;;;;4991027;28;20460;-72
2022/05/31 01:30:14;;;;;;;1.10;1.00;;;;;;;;;;4990856;28;20451;-71
2022/05/31 01:32:44;;;;;;;1.00;1.00;;;;;;;;;;4990944;28;20972;-72
2022/05/31 01:35:17;;;;;;;1.40;1.30;;;;;;;;;;4990783;28;20445;-71
2022/05/31 01:37:49;;;;;;;1.67;1.40;;;;;;;;;;4989360;28;20463;-72
2022/05/31 01:40:20;;;;;;;1.50;1.43;;;;;;;;;;4991759;28;20819;-72
2022/05/31 01:42:47;;;;;;;1.10;1.10;;;;;;;;;;4991649;28;20425;-72
2022/05/31 01:45:16;;;;;;;3.07;1.23;;;;;;;;;;4990491;28;20440;-72
2022/05/31 01:47:42;;;;;;;1.10;1.10;;;;;;;;;;4990083;28;20484;-72
2022/05/31 01:50:19;;;;;;;1.23;1.23;;;;;;;;;;4991055;28;20474;-72
2022/05/31 01:52:47;;;;;;;1.40;1.40;;;;;;;;;;4990429;28;21003;-72
2022/05/31 01:55:13;;;;;;;1.53;1.53;;;;;;;;;;4988962;28;20468;-72
2022/05/31 01:57:40;;;;;;;1.57;1.57;;;;;;;;;;4991664;28;20453;-72
2022/05/31 02:00:08;;;;;;;1.03;1.03;;;;;;;;;;4988348;28;20437;-72
2022/05/31 02:02:34;;;;;;;1.30;1.30;;;;;;;;;;4990320;28;20437;-73
2022/05/31 02:05:00;;;;;;;1.23;1.13;;;;;;;;;;4990130;28;20533;-72
2022/05/31 02:07:27;;;;;;;2.53;1.50;;;;;;;;;;4990294;28;20587;-72
2022/05/31 02:09:54;;;;;;;1.50;1.40;;;;;;;;;;4988436;28;20421;-72
2022/05/31 02:12:22;;;;;;;1.63;1.53;;;;;;;;;;4990051;28;20952;-72
2022/05/31 02:14:48;;;;;;;1.03;1.03;;;;;;;;;;4986470;28;20448;-73
2022/05/31 02:17:16;;;;;;;5.20;1.17;;;;;;;;;;4990716;28;20452;-72
2022/05/31 02:19:42;;;;;;;1.50;1.50;;;;;;;;;;4990484;28;20428;-72
2022/05/31 02:22:09;;;;;;;1.30;1.30;;;;;;;;;;4990036;28;20443;-73
2022/05/31 02:24:35;;;;;;;2.57;1.97;;;;;;;;;;4988997;28;20441;-72
2022/05/31 02:27:02;;;;;;;1.67;1.67;;;;;;;;;;4990420;28;20452;-72
2022/05/31 02:29:29;;;;;;;1.60;1.50;;;;;;;;;;4990191;28;20441;-74
2022/05/31 02:31:57;;;;;;;1.43;1.33;;;;;;;;;;4988415;28;20810;-72
2022/05/31 02:34:24;;;;;;;1.80;1.40;;;;;;;;;;4988969;28;20972;-71
2022/05/31 02:36:50;;;;;;;1.63;1.63;;;;;;;;;;4990249;28;20429;-72
2022/05/31 02:39:16;;;;;;;1.57;1.50;;;;;;;;;;4990520;28;20425;-72
2022/05/31 02:41:42;;;;;;;5.30;1.70;;;;;;;;;;4989689;28;20439;-71
2022/05/31 02:44:09;;;;;;;7.30;1.70;;;;;;;;;;4990218;28;20440;-73
2022/05/31 02:46:35;;;;;;;2.67;2.10;;;;;;;;;;4990127;28;20417;-72
2022/05/31 02:49:02;;;;;;;1.70;1.60;;;;;;;;;;4989786;28;20480;-72
2022/05/31 02:51:28;;;;;;;1.20;1.10;;;;;;;;;;4989709;28;20997;-72
2022/05/31 02:53:54;;;;;;;1.00;1.00;;;;;;;;;;4988132;28;20438;-71
2022/05/31 02:56:20;;;;;;;1.37;1.37;;;;;;;;;;4989614;28;20448;-71
2022/05/31 02:58:46;;;;;;;1.90;1.90;;;;;;;;;;4989818;28;20433;-72
2022/05/31 03:01:19;;;;;;;1.30;1.20;;;;;;;;;;4988748;28;20429;-72
2022/05/31 03:03:45;;;;;;;2.10;1.40;;;;;;;;;;4988556;28;20417;-72
2022/05/31 03:06:11;;;;;;;1.57;1.57;;;;;;;;;;4989286;28;20783;-72
2022/05/31 03:08:37;;;;;;;1.33;1.13;;;;;;;;;;4988876;28;20503;-72
2022/05/31 03:11:03;;;;;;;1.97;1.13;;;;;;;;;;4988900;28;20436;-72
2022/05/31 03:13:29;;;;;;;3.60;1.63;;;;;;;;;;4989244;28;20437;-71
2022/05/31 03:16:01;;;;;;;1.27;1.27;;;;;;;;;;4990120;28;20437;-72
2022/05/31 03:18:29;;;;;;;3.80;1.40;;;;;;;;;;4990169;28;20455;-71
2022/05/31 03:20:59;;;;;;;3.10;1.80;;;;;;;;;;4987973;28;20520;-72
2022/05/31 03:23:27;;;;;;;1.60;1.50;;;;;;;;;;4989243;28;20528;-72
2022/05/31 03:25:55;;;;;;;1.33;1.13;;;;;;;;;;4988101;28;20491;-71
2022/05/31 03:28:22;;;;;;;1.80;1.70;;;;;;;;;;4990041;28;20823;-74
2022/05/31 03:30:48;;;;;;;1.10;1.10;;;;;;;;;;4989970;28;20997;-72
2022/05/31 03:33:14;;;;;;;2.37;1.50;;;;;;;;;;4989052;28;20519;-73
2022/05/31 03:35:41;;;;;;;1.30;1.30;;;;;;;;;;4989531;28;20789;-72
2022/05/31 03:38:07;;;;;;;2.30;1.50;;;;;;;;;;4988630;28;21145;-75
2022/05/31 03:43:18;;;;;;;1.93;1.50;;;;;;;;;;4987093;28;20440;-71
2022/05/31 03:45:44;;;;;;;9.63;1.93;;;;;;;;;;4989155;28;20841;-72
2022/05/31 03:48:11;;;;;;;1.57;1.57;;;;;;;;;;4988583;28;20499;-74
2022/05/31 03:50:38;;;;;;;4.83;1.60;;;;;;;;;;4987314;28;20506;-71
2022/05/31 03:53:05;;;;;;;1.40;1.40;;;;;;;;;;4988267;28;20488;-72
2022/05/31 03:55:31;;;;;;;3.80;1.80;;;;;;;;;;4989633;28;20468;-72
2022/05/31 03:57:57;;;;;;;4.00;1.70;;;;;;;;;;4989375;28;20493;-71
2022/05/31 04:00:23;;;;;;;1.43;1.43;;;;;;;;;;4988494;28;20444;-71
2022/05/31 04:02:50;;;;;;;6.63;2.00;;;;;;;;;;4987382;28;20592;-71
2022/05/31 04:05:16;;;;;;;6.73;1.67;;;;;;;;;;4989328;28;20512;-72
2022/05/31 04:07:42;;;;;;;2.20;1.43;;;;;;;;;;4986209;28;20523;-73
2022/05/31 04:10:10;;;;;;;1.50;1.40;;;;;;;;;;4989410;28;20449;-71
2022/05/31 04:12:37;;;;;;;2.40;1.50;;;;;;;;;;4985631;28;20810;-72
2022/05/31 04:15:03;;;;;;;3.07;1.60;;;;;;;;;;4988125;28;20448;-73
2022/05/31 04:17:29;;;;;;;1.80;1.70;;;;;;;;;;4991677;28;20459;-72
2022/05/31 04:19:55;;;;;;;12.23;2.10;;;;;;;;;;4992761;28;20804;-71
2022/05/31 04:22:21;;;;;;;1.50;1.40;;;;;;;;;;4991359;28;20861;-71
2022/05/31 04:24:47;;;;;;;7.37;1.90;;;;;;;;;;4992120;28;20437;-72
2022/05/31 04:27:16;;;;;;;1.93;1.60;;;;;;;;;;4992300;28;20433;-72
2022/05/31 04:29:42;;;;;;;2.27;2.17;;;;;;;;;;4991650;28;20941;-71
2022/05/31 04:32:08;;;;;;;3.17;1.40;;;;;;;;;;4982422;28;20487;-72
2022/05/31 04:34:34;;;;;;;2.67;1.47;;;;;;;;;;4990792;28;20877;-73
2022/05/31 04:37:00;;;;;;;5.37;2.00;;;;;;;;;;4992274;28;20432;-73
2022/05/31 04:39:26;;;;;;;1.90;1.87;;;;;;;;;;4990583;28;20429;-74
2022/05/31 04:41:52;;;;;;;2.10;2.00;;;;;;;;;;4992603;28;20424;-73
2022/05/31 04:44:19;;;;;;;3.00;1.90;;;;;;;;;;4985467;28;20448;-71
2022/05/31 04:46:45;;;;;;;4.00;3.47;;;;;;;;;;4991938;28;20445;-72
2022/05/31 04:49:11;;;;;;;3.30;3.20;;;;;;;;;;4988697;28;20481;-72
2022/05/31 04:51:37;;;;;;;2.27;2.17;;;;;;;;;;4992229;28;20465;-71
2022/05/31 04:54:04;;;;;;;2.67;2.47;;;;;;;;;;4991398;28;20438;-72
2022/05/31 04:56:30;;;;;;;1.90;1.90;;;;;;;;;;4991571;28;20433;-71
2022/05/31 04:58:56;;;;;;;3.47;2.33;;;;;;;;;;4991969;28;20516;-71
2022/05/31 05:01:22;;;;;;;10.97;2.67;;;;;;;;;;4989915;28;21340;-72
2022/05/31 05:03:49;;;;;;;2.60;2.50;;;;;;;;;;4988671;28;20456;-72
2022/05/31 05:06:16;;;;;;;3.20;2.90;;;;;;;;;;4989294;28;20437;-73
2022/05/31 05:08:42;;;;;;;8.57;3.30;;;;;;;;;;4991603;28;20887;-72
2022/05/31 05:11:09;;;;;;;2.23;2.13;;;;;;;;;;4990009;28;20495;-72
2022/05/31 05:13:36;;;;;;;5.90;2.57;;;;;;;;;;4989264;28;20449;-72
2022/05/31 05:16:02;;;;;;;3.57;2.37;;;;;;;;;;4989827;28;20534;-71
2022/05/31 05:18:29;;;;;;;2.00;1.90;;;;;;;;;;4988293;28;20449;-72
2022/05/31 05:20:56;;;;;;;2.40;2.30;;;;;;;;;;4989468;28;20433;-71
2022/05/31 05:23:22;;;;;;;4.90;1.50;;;;;;;;;;4989381;28;20469;-72
2022/05/31 05:25:52;;;;;;;3.90;2.10;;;;;;;;;;4991029;28;20921;-72
2022/05/31 05:31:03;;;;;;;2.03;1.83;;;;;;;;;;4985324;28;20927;-72
2022/05/31 05:33:29;;;;;;;1.60;1.50;;;;;;;;;;5021418;28;20523;-72
2022/05/31 05:35:55;;;;;;;11.23;2.60;;;;;;;;;;4990873;28;20512;-71
2022/05/31 05:38:21;;;;;;;6.60;2.77;;;;;;;;;;4986604;28;20536;-71
2022/05/31 05:40:47;;;;;;;4.47;3.10;;;;;;;;;;4987352;28;20442;-72
2022/05/31 05:43:13;;;;;;;1.90;1.73;;;;;;;;;;4988456;28;20437;-73
2022/05/31 05:45:39;;;;;;;3.60;1.83;;;;;;;;;;4990749;28;20425;-71
2022/05/31 05:48:06;;;;;;;2.10;2.03;;;;;;;;;;4987300;28;20482;-73
2022/05/31 05:50:33;;;;;;;3.23;2.00;;;;;;;;;;4989065;28;20872;-72
2022/05/31 05:53:02;;;;;;;1.97;1.83;;;;;;;;;;4987323;28;20472;-71
2022/05/31 05:55:28;;;;;;;4.30;1.70;;;;;;;;;;4984157;28;20517;-72
2022/05/31 05:57:54;;;;;;;3.70;2.20;;;;;;;;;;4990121;28;20532;-72
2022/05/31 06:00:21;;;;;;;2.43;2.07;;;;;;;;;;4987457;28;20907;-72
2022/05/31 06:02:48;;;;;;;2.50;1.90;;;;;;;;;;4977327;28;20495;-72
2022/05/31 06:05:21;;;;;;;1.83;1.67;;;;;;;;;;4986408;28;20444;-72
2022/05/31 06:07:50;;;;;;;1.90;1.70;;;;;;;;;;4989754;28;20504;-72
2022/05/31 06:10:18;;;;;;;2.40;1.50;;;;;;;;;;4986744;28;20484;-71
2022/05/31 06:12:47;;;;;;;6.87;1.80;;;;;;;;;;4984636;28;20431;-73
2022/05/31 06:15:17;;;;;;;5.60;1.47;;;;;;;;;;4987694;28;20472;-72
2022/05/31 06:17:45;;;;;;;9.67;3.60;;;;;;;;;;4989096;28;20735;-71
2022/05/31 06:20:11;;;;;;;1.90;1.80;;;;;;;;;;4987447;28;20529;-71
2022/05/31 06:22:38;;;;;;;4.03;2.00;;;;;;;;;;4990276;28;20428;-72
2022/05/31 06:25:04;;;;;;;3.30;2.03;;;;;;;;;;4990714;28;20429;-72
2022/05/31 06:27:30;;;;;;;1.90;1.70;;;;;;;;;;4990671;28;20479;-71
2022/05/31 06:29:56;;;;;;;2.50;1.60;;;;;;;;;;4988038;28;20445;-71
2022/05/31 06:32:22;;;;;;;1.30;1.30;;;;;;;;;;4988834;28;20421;-71
2022/05/31 06:34:48;;;;;;;1.67;1.40;;;;;;;;;;4989378;28;20532;-71
2022/05/31 06:37:15;;;;;;;2.00;2.00;;;;;;;;;;4990345;28;20433;-71
2022/05/31 06:39:42;;;;;;;2.20;1.97;;;;;;;;;;4990546;28;20962;-71
2022/05/31 06:42:10;;;;;;;1.77;1.77;;;;;;;;;;4990630;28;20425;-71
2022/05/31 06:44:36;;;;;;;1.77;1.60;;;;;;;;;;4990781;28;20523;-71
2022/05/31 06:47:03;;;;;;;1.53;1.53;;;;;;;;;;4990126;28;20508;-73
2022/05/31 06:49:33;;;;;;;3.10;1.40;;;;;;;;;;4990487;28;20495;-70
2022/05/31 06:57:33;;;;;;;2.77;1.77;;;;;;;;;;4985983;28;20440;-72
2022/05/31 06:59:59;;;;;;;2.53;2.43;;;;;;;;;;4989352;28;20437;-69
2022/05/31 07:02:27;;;;;;;1.53;1.53;;;;;;;;;;4985843;28;20861;-71
2022/05/31 07:04:53;;;;;;;1.37;1.37;;;;;;;;;;4983269;28;20437;-71
2022/05/31 07:07:19;;;;;;;4.37;2.20;;;;;;;;;;4986763;28;20444;-72
2022/05/31 07:09:45;;;;;;;1.53;1.53;;;;;;;;;;4990057;28;20441;-72
2022/05/31 07:12:11;;;;;;;1.40;1.30;;;;;;;;;;4988219;28;20439;-71
2022/05/31 07:14:37;;;;;;;3.83;3.37;;;;;;;;;;4990271;28;20869;-72
2022/05/31 07:17:04;;;;;;;3.00;1.47;;;;;;;;;;4989741;28;20425;-70
2022/05/31 07:19:29;;;;;;;1.80;1.80;;;;;;;;;;4989456;28;20425;-72
2022/05/31 07:21:59;;;;;;;4.43;1.73;;;;;;;;;;4990023;28;20435;-71
2022/05/31 07:24:25;;;;;;;4.90;2.17;;;;;;;;;;4990145;28;20417;-70
2022/05/31 07:26:51;;;;;;;5.23;1.77;;;;;;;;;;4990667;28;20420;-74
2022/05/31 07:29:17;;;;;;;1.93;1.60;;;;;;;;;;4989744;28;20543;-70
2022/05/31 07:31:44;;;;;;;1.70;1.67;;;;;;;;;;4988232;28;20477;-71
2022/05/31 07:34:11;;;;;;;1.50;1.50;;;;;;;;;;4989956;28;20508;-72
2022/05/31 07:36:38;;;;;;;2.73;2.50;;;;;;;;;;4990452;28;20436;-70
2022/05/31 07:39:04;;;;;;;2.47;1.83;;;;;;;;;;4987175;28;20448;-71
2022/05/31 07:41:32;;;;;;;1.90;1.80;;;;;;;;;;4986430;28;20428;-71
2022/05/31 07:43:58;;;;;;;3.70;1.70;;;;;;;;;;4988573;28;20190;-71
2022/05/31 07:46:25;;;;;;;2.30;2.20;;;;;;;;;;4987163;28;21098;-71
2022/05/31 07:48:51;;;;;;;1.60;1.50;;;;;;;;;;4989179;28;20520;-71
2022/05/31 07:51:17;;;;;;;4.73;1.90;;;;;;;;;;4990249;28;20436;-71
2022/05/31 07:53:43;;;;;;;2.63;2.13;;;;;;;;;;4993112;28;20456;-72
2022/05/31 07:56:10;;;;;;;4.20;1.63;;;;;;;;;;4991345;28;20436;-77
2022/05/31 07:58:37;;;;;;;2.13;1.90;;;;;;;;;;4994033;28;20433;-72
2022/05/31 08:01:04;;;;;;;1.80;1.70;;;;;;;;;;4990723;28;20409;-71
2022/05/31 08:03:31;;;;;;;7.90;2.10;;;;;;;;;;4973022;28;20453;-73
2022/05/31 08:05:57;;;;;;;2.50;1.50;;;;;;;;;;4989479;28;20441;-72
2022/05/31 08:08:23;;;;;;;2.83;2.10;;;;;;;;;;4992818;28;20488;-72
2022/05/31 08:10:49;;;;;;;1.60;1.50;;;;;;;;;;4993132;28;20424;-75
2022/05/31 08:13:15;;;;;;;1.70;1.60;;;;;;;;;;4993005;28;20785;-71
2022/05/31 08:15:41;;;;;;;3.07;1.80;;;;;;;;;;4992990;28;20432;-72
2022/05/31 08:18:07;;;;;;;4.80;1.83;;;;;;;;;;4993102;28;20421;-72
2022/05/31 08:20:33;;;;;;;2.53;1.97;;;;;;;;;;4992988;28;20428;-72
2022/05/31 08:23:02;;;;;;;5.20;1.70;;;;;;;;;;4992296;28;20820;-72
2022/05/31 08:25:28;;;;;;;4.90;1.80;;;;;;;;;;4989434;28;20440;-73
2022/05/31 08:27:54;;;;;;;1.40;1.30;;;;;;;;;;4992120;28;20477;-71
2022/05/31 08:30:20;;;;;;;3.17;2.00;;;;;;;;;;4991013;28;20449;-75
2022/05/31 08:32:46;;;;;;;1.73;1.50;;;;;;;;;;4991267;28;20421;-74
2022/05/31 08:35:12;;;;;;;2.20;1.80;;;;;;;;;;4991559;28;20448;-71
2022/05/31 08:37:38;;;;;;;1.83;1.60;;;;;;;;;;4990778;28;20524;-71
2022/05/31 08:40:04;;;;;;;7.43;1.30;;;;;;;;;;4991749;28;20475;-75
2022/05/31 08:42:44;;;;;;;4.93;1.70;;;;;;;;;;4991738;28;20460;-76
2022/05/31 08:45:22;;;;;;;2.23;1.20;;;;;;;;;;4990851;28;20468;-73
2022/05/31 08:47:58;;;;;;;6.93;1.27;;;;;;;;;;4991498;28;20527;-74
2022/05/31 08:53:31;;;;;;;4.83;2.10;;;;;;;;;;4991542;28;20529;-72
2022/05/31 08:58:50;;;;;;;2.00;0.77;;;;;;;;;;4978648;28;20475;-73
2022/05/31 09:01:19;;;;;;;1.20;1.20;;;;;;;;;;4988645;28;20444;-73
2022/05/31 09:03:51;;;;;;;0.70;0.70;;;;;;;;;;4989936;28;20429;-71
2022/05/31 09:06:20;;;;;;;1.30;1.10;;;;;;;;;;4992379;28;20944;-75
2022/05/31 09:08:46;;;;;;;3.63;1.50;;;;;;;;;;4990168;28;20532;-71
2022/05/31 09:11:12;;;;;;;1.33;1.00;;;;;;;;;;4992008;28;20464;-75
2022/05/31 09:14:01;;;;;;;4.80;1.03;;;;;;;;;;4992210;28;20436;-73
2022/05/31 09:16:34;;;;;;;4.40;0.80;;;;;;;;;;4991259;28;20487;-71
2022/05/31 09:19:02;;;;;;;0.80;0.80;;;;;;;;;;4991648;28;20516;-75
2022/05/31 09:21:34;;;;;;;3.90;1.07;;;;;;;;;;4990886;28;20487;-72
2022/05/31 09:24:02;;;;;;;2.40;1.50;;;;;;;;;;4992218;28;20406;-72
2022/05/31 09:26:40;;;;;;;1.07;1.07;;;;;;;;;;4992046;28;20435;-71
2022/05/31 09:29:15;;;;;;;3.80;1.40;;;;;;;;;;4991433;28;20503;-73
2022/05/31 09:31:49;;;;;;;8.90;1.40;;;;;;;;;;4989018;28;20436;-74
2022/05/31 09:34:34;;;;;;;2.37;1.53;;;;;;;;;;4989458;28;20844;-71
2022/05/31 09:37:08;;;;;;;1.83;1.77;;;;;;;;;;4990051;28;20441;-72
2022/05/31 09:39:43;;;;;;;3.77;1.30;;;;;;;;;;4991828;28;20469;-71
2022/05/31 09:42:18;;;;;;;0.97;0.97;;;;;;;;;;4991795;28;20428;-74
2022/05/31 09:44:47;;;;;;;4.23;1.00;;;;;;;;;;4991771;28;20800;-72
2022/05/31 09:47:18;;;;;;;1.40;1.30;;;;;;;;;;4990915;28;20422;-72
2022/05/31 09:49:46;;;;;;;1.60;1.50;;;;;;;;;;4991701;28;20487;-76
2022/05/31 09:52:34;;;;;;;2.40;1.57;;;;;;;;;;4990496;28;20547;-76
2022/05/31 09:58:08;;;;;;;11.43;1.33;;;;;;;;;;4991380;28;20420;-72
2022/05/31 10:00:34;;;;;;;2.83;1.30;;;;;;;;;;4988925;28;20436;-72
2022/05/31 10:03:05;;;;;;;1.57;0.70;;;;;;;;;;4989981;28;20437;-72
2022/05/31 10:05:31;;;;;;;0.80;0.80;;;;;;;;;;4990892;28;20425;-73
2022/05/31 10:07:57;;;;;;;2.40;1.97;;;;;;;;;;4990615;28;20468;-71
2022/05/31 10:10:29;;;;;;;1.27;1.20;;;;;;;;;;4991434;28;20417;-71
2022/05/31 10:12:57;;;;;;;4.37;1.50;;;;;;;;;;4989664;28;20433;-72
2022/05/31 10:15:42;;;;;;;1.00;1.00;;;;;;;;;;4985660;28;20437;-71
2022/05/31 10:18:10;;;;;;;1.20;1.20;;;;;;;;;;4985059;28;20451;-72
2022/05/31 10:20:37;;;;;;;2.00;1.10;;;;;;;;;;4989478;28;21013;-74
2022/05/31 10:23:15;;;;;;;3.03;1.10;;;;;;;;;;4990754;28;20448;-73
2022/05/31 10:25:44;;;;;;;17.37;1.40;;;;;;;;;;4990984;28;20524;-75
2022/05/31 10:28:12;;;;;;;2.27;0.97;;;;;;;;;;4990439;28;20833;-75
2022/05/31 10:30:39;;;;;;;2.00;1.23;;;;;;;;;;4990481;28;21013;-71
2022/05/31 10:33:05;;;;;;;1.70;1.00;;;;;;;;;;4990608;28;20468;-74
2022/05/31 10:35:33;;;;;;;1.00;1.00;;;;;;;;;;4990648;28;20456;-75
2022/05/31 10:38:03;;;;;;;2.90;1.30;;;;;;;;;;4989343;28;20471;-73
2022/05/31 10:40:34;;;;;;;4.83;1.13;;;;;;;;;;4990503;28;20441;-66
2022/05/31 10:43:04;;;;;;;1.13;1.13;;;;;;;;;;4989838;28;20424;-75
2022/05/31 10:45:33;;;;;;;0.97;0.97;;;;;;;;;;4989641;28;20436;-71
2022/05/31 10:48:00;;;;;;;1.33;1.20;;;;;;;;;;4989958;28;21035;-71
2022/05/31 10:50:33;;;;;;;4.40;1.20;;;;;;;;;;4988929;28;20445;-75
2022/05/31 10:52:59;;;;;;;1.23;1.13;;;;;;;;;;4990246;28;20477;-75
2022/05/31 10:55:31;;;;;;;5.80;1.20;;;;;;;;;;4986777;28;20934;-75
2022/05/31 10:58:16;;;;;;;2.47;1.10;;;;;;;;;;4988667;28;20438;-71
2022/05/31 11:00:42;;;;;;;2.00;1.30;;;;;;;;;;4988681;28;20444;-76
2022/05/31 11:03:08;;;;;;;2.10;2.00;;;;;;;;;;4990160;28;20802;-71
2022/05/31 11:05:39;;;;;;;3.03;1.60;;;;;;;;;;4987244;28;20927;-72
2022/05/31 11:11:30;;;;;;;1.10;1.10;;;;;;;;;;4986342;28;20483;-76
2022/05/31 11:14:08;;;;;;;1.83;1.27;;;;;;;;;;4989959;28;20432;-75
2022/05/31 11:16:40;;;;;;;1.80;1.70;;;;;;;;;;4989358;28;21007;-75
2022/05/31 11:19:09;;;;;;;1.63;1.53;;;;;;;;;;4989163;28;20556;-75
2022/05/31 11:21:43;;;;;;;0.93;0.93;;;;;;;;;;4986059;28;20433;-72
2022/05/31 11:24:37;;;;;;;5.47;1.27;;;;;;;;;;4989023;28;20464;-76
2022/05/31 11:27:09;;;;;;;1.83;1.73;;;;;;;;;;4985734;28;21039;-75
2022/05/31 11:29:38;;;;;;;1.80;1.40;;;;;;;;;;4988475;28;20571;-75
2022/05/31 11:32:10;;;;;;;2.57;1.67;;;;;;;;;;4990055;28;20464;-72
2022/05/31 11:34:40;;;;;;;2.83;1.10;;;;;;;;;;4987537;28;21001;-75
2022/05/31 11:37:24;;;;;;;0.73;0.73;;;;;;;;;;4989661;28;20880;-73
2022/05/31 11:40:07;;;;;;;4.20;1.10;;;;;;;;;;4987162;28;20437;-71
2022/05/31 11:42:39;;;;;;;6.00;1.17;;;;;;;;;;4988903;28;20441;-75
2022/05/31 11:45:09;;;;;;;1.20;1.13;;;;;;;;;;4987298;28;20440;-71
2022/05/31 11:47:46;;;;;;;1.63;0.90;;;;;;;;;;4986779;28;20949;-72
2022/05/31 11:50:21;;;;;;;0.70;0.70;;;;;;;;;;4989778;28;20940;-71
2022/05/31 11:53:22;;;;;;;3.33;1.23;;;;;;;;;;4986081;28;20477;-72
2022/05/31 11:55:50;;;;;;;2.60;1.20;;;;;;;;;;4968040;28;20440;-72
2022/05/31 11:58:29;;;;;;;1.20;1.20;;;;;;;;;;4980808;28;20972;-72
2022/05/31 12:01:31;;;;;;;0.80;0.80;;;;;;;;;;4989387;28;20941;-76
2022/05/31 12:04:03;;;;;;;4.03;1.20;;;;;;;;;;4967628;28;20433;-71
2022/05/31 12:06:30;;;;;;;1.13;1.03;;;;;;;;;;4986199;28;20440;-76
2022/05/31 12:09:03;;;;;;;1.63;0.90;;;;;;;;;;4987950;28;20511;-71
2022/05/31 12:11:41;;;;;;;4.27;1.80;;;;;;;;;;4989916;28;20829;-76
2022/05/31 12:14:10;;;;;;;5.40;1.30;;;;;;;;;;4988230;28;20442;-75
2022/05/31 12:16:36;;;;;;;2.30;1.10;;;;;;;;;;4989325;28;20432;-74
2022/05/31 12:19:05;;;;;;;0.70;0.70;;;;;;;;;;4989440;28;20511;-71
2022/05/31 12:21:40;;;;;;;1.00;1.00;;;;;;;;;;4989945;28;20438;-73
2022/05/31 12:24:12;;;;;;;4.37;1.60;;;;;;;;;;4989333;28;20925;-72
2022/05/31 12:26:58;;;;;;;1.50;0.83;;;;;;;;;;4989665;28;20424;-76
2022/05/31 12:29:27;;;;;;;0.93;0.90;;;;;;;;;;4980943;28;20567;-75
2022/05/31 12:32:13;;;;;;;4.17;0.80;;;;;;;;;;4989092;28;21003;-76
2022/05/31 12:34:40;;;;;;;1.60;1.03;;;;;;;;;;4989227;28;20464;-75
2022/05/31 12:37:13;;;;;;;4.07;1.30;;;;;;;;;;4986209;28;20429;-72
2022/05/31 12:39:40;;;;;;;3.33;1.00;;;;;;;;;;4989027;28;20947;-76
2022/05/31 12:42:15;;;;;;;3.17;1.30;;;;;;;;;;4991981;28;20839;-71
2022/05/31 12:44:42;;;;;;;0.90;0.90;;;;;;;;;;4991240;28;20429;-72
2022/05/31 12:47:14;;;;;;;9.63;1.57;;;;;;;;;;4989493;28;20498;-75
2022/05/31 12:49:50;;;;;;;1.00;1.00;;;;;;;;;;4991539;28;20472;-72
2022/05/31 12:54:53;;;;;;;9.90;1.27;;;;;;;;;;4990687;28;20431;-75
2022/05/31 12:58:26;;;;;;;0.87;0.87;;;;;;;;;;4989990;28;20452;-76
2022/05/31 13:00:26;;;;;;;5.10;1.40;;;;;;;;;;4992205;28;20425;-76
2022/05/31 13:02:54;;;;;;;10.23;1.20;;;;;;;;;;4990497;28;20468;-75
2022/05/31 13:05:39;;;;;;;4.43;1.20;;;;;;;;;;4989542;28;20433;-74
2022/05/31 13:08:16;;;;;;;0.90;0.90;;;;;;;;;;4991557;28;20460;-74
2022/05/31 13:19:34;;;;;;;2.93;1.00;;;;;;;;;;4991884;28;20936;-73
2022/05/31 13:21:56;;;;;;;0.97;0.97;;;;;;;;;;4991616;28;20483;-71
2022/05/31 13:24:24;;;;;;;0.70;0.70;;;;;;;;;;4992007;28;20522;-72
2022/05/31 13:26:51;;;;;;;5.43;0.97;;;;;;;;;;4992143;28;20436;-74
2022/05/31 13:29:20;;;;;;;9.23;1.20;;;;;;;;;;4987823;28;20551;-71
2022/05/31 13:31:49;;;;;;;3.60;1.10;;;;;;;;;;4991706;28;20417;-76
2022/05/31 13:34:25;;;;;;;5.90;0.80;;;;;;;;;;4991469;28;20440;-71
2022/05/31 13:36:51;;;;;;;7.47;0.90;;;;;;;;;;4991607;28;20448;-71
2022/05/31 13:39:18;;;;;;;2.93;0.80;;;;;;;;;;4991680;28;20515;-73
2022/05/31 13:41:47;;;;;;;2.17;0.77;;;;;;;;;;4991744;28;20428;-71
2022/05/31 13:44:14;;;;;;;3.73;0.90;;;;;;;;;;4991644;28;21012;-72
2022/05/31 13:46:45;;;;;;;2.77;0.73;;;;;;;;;;4989814;28;20437;-72
2022/05/31 13:49:16;;;;;;;2.53;1.10;;;;;;;;;;4989197;28;20864;-75
2022/05/31 13:51:51;;;;;;;1.30;0.77;;;;;;;;;;4991261;28;20865;-73
2022/05/31 13:54:19;;;;;;;1.13;0.83;;;;;;;;;;4991524;28;20433;-76
2022/05/31 13:56:46;;;;;;;6.40;1.33;;;;;;;;;;4989933;28;20425;-71
2022/05/31 13:59:12;;;;;;;5.73;1.07;;;;;;;;;;4989930;28;20473;-71
2022/05/31 14:01:40;;;;;;;4.43;0.80;;;;;;;;;;4991074;28;20919;-74
2022/05/31 14:04:08;;;;;;;7.40;1.17;;;;;;;;;;4991297;28;20439;-71
2022/05/31 14:06:35;;;;;;;1.33;1.23;;;;;;;;;;4988973;28;20432;-72
2022/05/31 14:09:02;;;;;;;1.80;0.97;;;;;;;;;;5004643;28;20488;-73
2022/05/31 14:11:31;;;;;;;0.80;0.80;;;;;;;;;;4991291;28;21025;-73
2022/05/31 14:14:01;;;;;;;2.33;0.90;;;;;;;;;;4991098;28;20867;-72
2022/05/31 14:16:29;;;;;;;1.00;1.00;;;;;;;;;;4990126;28;20433;-75
2022/05/31 14:18:58;;;;;;;0.70;0.70;;;;;;;;;;4990729;28;20508;-72
2022/05/31 14:21:25;;;;;;;0.60;0.60;;;;;;;;;;4991047;28;20540;-75
2022/05/31 14:23:51;;;;;;;0.67;0.60;;;;;;;;;;4991143;28;20444;-74
2022/05/31 14:26:18;;;;;;;3.30;0.57;;;;;;;;;;4989930;28;20517;-73
2022/05/31 14:29:03;;;;;;;0.40;0.40;;;;;;;;;;4990478;28;20512;-71
2022/05/31 14:31:29;;;;;;;2.50;1.20;;;;;;;;;;4985641;28;20737;-72
2022/05/31 14:34:00;;;;;;;12.73;2.67;;;;;;;;;;4987631;28;20448;-71
2022/05/31 14:36:33;;;;;;;16.87;0.90;;;;;;;;;;4990370;28;20433;-73
2022/05/31 14:39:01;;;;;;;5.67;0.67;;;;;;;;;;4989766;28;20432;-74
2022/05/31 14:41:39;;;;;;;1.23;1.10;;;;;;;;;;4990672;28;20440;-71
2022/05/31 14:44:07;;;;;;;1.87;1.27;;;;;;;;;;4989978;28;20921;-72
2022/05/31 14:46:35;;;;;;;1.23;1.00;;;;;;;;;;4988896;28;20495;-71
2022/05/31 14:49:11;;;;;;;2.07;1.10;;;;;;;;;;4990024;28;20837;-73
2022/05/31 14:51:38;;;;;;;0.87;0.87;;;;;;;;;;4990457;28;20452;-74
2022/05/31 14:54:24;;;;;;;2.23;1.00;;;;;;;;;;4990562;28;20948;-75
2022/05/31 14:56:51;;;;;;;2.40;0.90;;;;;;;;;;4990571;28;20794;-76
2022/05/31 14:59:26;;;;;;;1.63;0.50;;;;;;;;;;4989689;28;20495;-75
2022/05/31 15:01:53;;;;;;;2.23;0.80;;;;;;;;;;4986377;28;20439;-75
2022/05/31 15:04:23;;;;;;;1.17;0.80;;;;;;;;;;4989063;28;20477;-71
2022/05/31 15:06:58;;;;;;;1.13;0.90;;;;;;;;;;4989576;28;20421;-71
2022/05/31 15:09:26;;;;;;;1.53;1.03;;;;;;;;;;4988787;28;20579;-74
2022/05/31 15:20:13;;;;;;;0.80;0.80;;;;;;;;;;4989953;28;20451;-72
2022/05/31 15:22:39;;;;;;;0.67;0.67;;;;;;;;;;4989099;28;20544;-72
2022/05/31 15:25:05;;;;;;;1.40;0.80;;;;;;;;;;4989956;28;20421;-71
2022/05/31 15:27:32;;;;;;;1.50;1.30;;;;;;;;;;4989297;28;20429;-71
2022/05/31 15:29:59;;;;;;;0.90;0.90;;;;;;;;;;4986596;28;20452;-72
2022/05/31 15:32:25;;;;;;;0.80;0.80;;;;;;;;;;4989060;28;20487;-71
2022/05/31 15:34:51;;;;;;;0.80;0.80;;;;;;;;;;4988042;28;21764;-73
2022/05/31 15:37:18;;;;;;;0.60;0.60;;;;;;;;;;4986431;28;20433;-71